Time;durP1;ratioP1;P1;durP2;ratioP2;P2;SDS_P1;SDS_P2;PMS_P1;PMS_P2;Temp;Humidity;BMP_temperature;BMP_pressure;BME280_temperature;BME280_humidity;BME280_pressure;Samples;Min_cycle;Max_cycle;Signal;HPM_P1;HPM_P2
2022/10/08 00:02:08;;;;;;;;;;;20.60;87.40;;;;;;5096472;28;19963;-75
2022/10/08 00:04:34;;;;;;;;;;;20.60;87.30;;;;;;5115613;28;19915;-76
2022/10/08 00:07:01;;;;;;;;;;;20.60;87.10;;;;;;5097663;28;20224;-76
2022/10/08 00:09:28;;;;;;;;;;;20.60;86.70;;;;;;5115905;28;20247;-76
2022/10/08 00:11:56;;;;;;;;;;;20.60;85.80;;;;;;5112033;28;19912;-76
2022/10/08 00:14:23;;;;;;;;;;;20.60;86.00;;;;;;5115309;28;19923;-76
2022/10/08 00:16:49;;;;;;;;;;;20.70;85.60;;;;;;5115557;28;20300;-76
2022/10/08 00:19:16;;;;;;;;;;;20.70;85.50;;;;;;5096912;28;19915;-76
2022/10/08 06:20:54;;;;;;;;;;;17.60;98.10;;;;;;5086038;28;19953;-75
2022/10/08 06:23:21;;;;;;;;;;;17.60;98.20;;;;;;5086124;28;19912;-74
2022/10/08 06:25:48;;;;;;;;;;;17.60;98.20;;;;;;5084716;28;20018;-75
2022/10/08 06:28:15;;;;;;;;;;;17.60;98.30;;;;;;5091079;28;20319;-75
2022/10/08 06:30:42;;;;;;;;;;;17.60;98.30;;;;;;5090524;28;19911;-75
2022/10/08 06:33:09;;;;;;;;;;;17.50;98.30;;;;;;5091378;28;20253;-74
2022/10/08 06:35:39;;;;;;;;;;;17.50;98.30;;;;;;5073431;28;20460;-75
2022/10/08 06:38:06;;;;;;;;;;;17.50;98.30;;;;;;5085831;28;19912;-74
2022/10/08 06:40:39;;;;;;;;;;;17.50;98.30;;;;;;5088400;28;19912;-72
2022/10/08 06:43:06;;;;;;;;;;;17.50;98.40;;;;;;5082116;28;20553;-73
2022/10/08 06:45:37;;;;;;;;;;;17.50;98.40;;;;;;5090167;28;19912;-73
2022/10/08 06:48:04;;;;;;;;;;;17.50;98.40;;;;;;5083062;28;19923;-72
2022/10/08 06:50:31;;;;;;;;;;;17.50;98.50;;;;;;5090443;28;19946;-73
2022/10/08 06:52:57;;;;;;;;;;;17.50;98.40;;;;;;5083677;28;19970;-72
2022/10/08 06:55:24;;;;;;;;;;;17.50;98.30;;;;;;5079641;28;19921;-74
2022/10/08 06:57:51;;;;;;;;;;;17.40;98.40;;;;;;5082252;28;20380;-73
2022/10/08 07:00:19;;;;;;;;;;;17.30;98.40;;;;;;5088659;28;20426;-73
2022/10/08 07:02:45;;;;;;;;;;;17.30;98.40;;;;;;5081066;28;19916;-73
2022/10/08 07:05:12;;;;;;;;;;;17.30;98.30;;;;;;5088406;28;20338;-73
2022/10/08 07:07:38;;;;;;;;;;;17.20;98.30;;;;;;5092803;28;20417;-72
2022/10/08 07:10:05;;;;;;;;;;;17.20;98.30;;;;;;5099283;28;19916;-73
2022/10/08 07:12:32;;;;;;;;;;;17.20;98.20;;;;;;5097696;28;19916;-72
2022/10/08 07:14:59;;;;;;;;;;;17.10;98.10;;;;;;5092845;28;19927;-73
2022/10/08 07:17:27;;;;;;;;;;;17.10;98.20;;;;;;5077541;28;19970;-75
2022/10/08 10:55:37;;;;;;;;;;;15.40;98.90;;;;;;5117314;27;20073;-71
2022/10/08 10:58:21;;;;;;;;;;;15.30;98.90;;;;;;5107680;28;20468;-74
2022/10/08 11:00:51;;;;;;;;;;;15.40;98.90;;;;;;5110570;27;19969;-74
2022/10/08 11:03:30;;;;;;;;;;;15.30;98.90;;;;;;5106655;28;19972;-71
2022/10/08 11:06:01;;;;;;;;;;;15.30;98.90;;;;;;5099400;28;20385;-71
2022/10/08 11:08:50;;;;;;;;;;;15.40;99.00;;;;;;5106329;28;20270;-72
2022/10/08 11:11:20;;;;;;;;;;;15.40;99.00;;;;;;5100360;27;20281;-72
2022/10/08 11:13:47;;;;;;;;;;;15.40;99.00;;;;;;5105261;28;19916;-72
2022/10/08 11:16:18;;;;;;;;;;;15.40;99.00;;;;;;5119270;28;19912;-72
2022/10/08 11:18:51;;;;;;;;;;;15.40;99.10;;;;;;5126597;28;20034;-72
2022/10/08 11:21:23;;;;;;;;;;;15.50;99.00;;;;;;5116579;28;20010;-72
2022/10/08 11:24:03;;;;;;;;;;;15.50;99.00;;;;;;5115968;28;19919;-72
2022/10/08 11:26:45;;;;;;;;;;;15.50;99.00;;;;;;5113542;28;19915;-74
2022/10/08 11:29:27;;;;;;;;;;;15.50;99.00;;;;;;5103354;28;20405;-71
2022/10/08 11:31:53;;;;;;;;;;;15.50;99.00;;;;;;5115113;28;19995;-73
2022/10/08 11:34:20;;;;;;;;;;;15.40;99.00;;;;;;5120787;28;19928;-74
2022/10/08 11:37:07;;;;;;;;;;;15.40;99.00;;;;;;5123017;28;19923;-73
2022/10/08 11:39:36;;;;;;;;;;;15.50;99.00;;;;;;5104969;28;19912;-75
2022/10/08 11:42:41;;;;;;;;;;;15.50;99.00;;;;;;5116688;28;19922;-76
2022/10/08 11:45:14;;;;;;;;;;;15.50;99.00;;;;;;5016629;28;19913;-74
2022/10/08 11:47:45;;;;;;;;;;;15.50;99.00;;;;;;5020508;28;19917;-73
2022/10/08 11:50:20;;;;;;;;;;;15.50;99.00;;;;;;5074713;28;19934;-74
2022/10/08 11:52:47;;;;;;;;;;;15.50;99.00;;;;;;5129773;28;19938;-76
2022/10/08 11:55:22;;;;;;;;;;;15.60;99.10;;;;;;5120762;27;20392;-75
2022/10/08 11:58:14;;;;;;;;;;;15.60;99.10;;;;;;5115801;27;20637;-78
2022/10/08 12:00:42;;;;;;;;;;;15.50;99.10;;;;;;5121136;27;19923;-78
2022/10/08 12:03:22;;;;;;;;;;;15.50;99.10;;;;;;5124148;27;20445;-78
2022/10/08 12:05:51;;;;;;;;;;;15.50;99.10;;;;;;5106580;28;20034;-76
2022/10/08 12:08:35;;;;;;;;;;;15.50;99.10;;;;;;5124931;27;19911;-78
2022/10/08 12:11:20;;;;;;;;;;;15.50;99.10;;;;;;5110705;27;19962;-73
2022/10/08 12:13:53;;;;;;;;;;;15.50;99.10;;;;;;5117956;27;19960;-77
2022/10/08 12:16:19;;;;;;;;;;;15.60;99.10;;;;;;5100671;27;19919;-78
2022/10/08 12:18:46;;;;;;;;;;;15.60;99.10;;;;;;5107166;27;20278;-73
2022/10/08 12:21:16;;;;;;;;;;;15.60;99.10;;;;;;5116763;27;19911;-74
2022/10/08 12:23:43;;;;;;;;;;;15.60;99.10;;;;;;5129449;27;19911;-74
2022/10/08 12:26:13;;;;;;;;;;;15.60;99.10;;;;;;5120721;27;19912;-74
2022/10/08 12:28:43;;;;;;;;;;;15.60;99.10;;;;;;5136155;27;19914;-74
2022/10/08 12:31:22;;;;;;;;;;;15.60;99.10;;;;;;5127053;27;19912;-74
2022/10/08 12:34:02;;;;;;;;;;;15.60;99.10;;;;;;5106777;28;19916;-74
2022/10/08 12:36:49;;;;;;;;;;;15.70;99.10;;;;;;5098334;27;19915;-73
2022/10/08 12:39:34;;;;;;;;;;;15.60;99.10;;;;;;5114937;27;19908;-73
2022/10/08 12:42:07;;;;;;;;;;;15.70;99.10;;;;;;5102704;27;19998;-73
2022/10/08 12:44:40;;;;;;;;;;;15.60;99.10;;;;;;5096818;27;20266;-73
2022/10/08 12:47:17;;;;;;;;;;;15.60;99.10;;;;;;5106945;27;19919;-73
2022/10/08 12:49:49;;;;;;;;;;;15.50;99.00;;;;;;5097569;27;19911;-73
2022/10/08 12:52:16;;;;;;;;;;;15.50;99.10;;;;;;5135809;27;19915;-73
2022/10/08 12:54:47;;;;;;;;;;;15.50;99.10;;;;;;5122208;27;19916;-73
2022/10/08 12:57:16;;;;;;;;;;;15.50;99.10;;;;;;5110782;28;19927;-73
2022/10/08 12:59:42;;;;;;;;;;;15.50;99.10;;;;;;5110792;27;19911;-73
2022/10/08 13:02:25;;;;;;;;;;;15.50;99.10;;;;;;5122271;27;19938;-73
2022/10/08 13:04:52;;;;;;;;;;;15.40;99.10;;;;;;5113046;27;20366;-73
2022/10/08 13:07:28;;;;;;;;;;;15.30;99.00;;;;;;5133948;27;19911;-72
2022/10/08 13:10:01;;;;;;;;;;;15.30;99.00;;;;;;5122619;27;19920;-73
2022/10/08 13:12:28;;;;;;;;;;;15.20;99.00;;;;;;5101178;27;19938;-72
2022/10/08 13:15:04;;;;;;;;;;;15.20;99.00;;;;;;5102288;28;19990;-73
2022/10/08 13:17:31;;;;;;;;;;;15.10;99.00;;;;;;5125884;27;19911;-73
2022/10/08 13:20:04;;;;;;;;;;;15.00;99.00;;;;;;5118826;27;20327;-72
2022/10/08 13:22:30;;;;;;;;;;;15.10;99.10;;;;;;5135269;27;20002;-73
2022/10/08 13:24:57;;;;;;;;;;;15.00;99.00;;;;;;5116127;27;20370;-72
2022/10/08 13:27:25;;;;;;;;;;;15.00;99.00;;;;;;5113572;27;19914;-73
2022/10/08 13:29:52;;;;;;;;;;;14.90;99.00;;;;;;5132121;27;19916;-73
2022/10/08 13:32:28;;;;;;;;;;;14.90;99.00;;;;;;5116766;27;19912;-74
2022/10/08 13:34:55;;;;;;;;;;;14.70;98.90;;;;;;5124253;27;19924;-74
2022/10/08 13:37:21;;;;;;;;;;;14.70;98.90;;;;;;5124485;27;19911;-74
2022/10/08 13:39:55;;;;;;;;;;;14.70;98.90;;;;;;5114316;27;19964;-74
2022/10/08 13:42:22;;;;;;;;;;;14.60;98.90;;;;;;5121276;27;20333;-74
2022/10/08 13:44:49;;;;;;;;;;;14.60;98.90;;;;;;5118042;27;19934;-74
2022/10/08 13:47:17;;;;;;;;;;;14.50;98.90;;;;;;5110979;27;19911;-74
2022/10/08 13:49:43;;;;;;;;;;;14.50;98.80;;;;;;5120193;27;19966;-74
2022/10/08 13:52:14;;;;;;;;;;;14.50;98.80;;;;;;5131475;27;19993;-74
2022/10/08 13:54:41;;;;;;;;;;;14.20;98.70;;;;;;5109963;27;19919;-74
2022/10/08 13:57:09;;;;;;;;;;;14.30;98.80;;;;;;5134681;27;19946;-74
2022/10/08 13:59:35;;;;;;;;;;;14.30;98.80;;;;;;5121944;27;19918;-74
2022/10/08 14:02:02;;;;;;;;;;;14.30;98.80;;;;;;5119754;27;19945;-74
2022/10/08 14:04:28;;;;;;;;;;;14.30;98.80;;;;;;5099945;27;20421;-74
2022/10/08 14:06:55;;;;;;;;;;;14.30;98.70;;;;;;5134397;27;20353;-74
2022/10/08 14:09:23;;;;;;;;;;;14.20;98.70;;;;;;5129238;27;19919;-74
2022/10/08 14:11:54;;;;;;;;;;;14.20;98.70;;;;;;5110339;27;19911;-74
2022/10/08 14:14:21;;;;;;;;;;;14.10;98.70;;;;;;5115511;27;20006;-74
2022/10/08 14:16:48;;;;;;;;;;;14.20;98.70;;;;;;5109817;27;19915;-73
2022/10/08 14:19:15;;;;;;;;;;;14.20;98.70;;;;;;5109938;28;19930;-74
2022/10/08 14:21:41;;;;;;;;;;;14.10;98.60;;;;;;5109496;27;20010;-73
2022/10/08 14:24:09;;;;;;;;;;;14.10;98.70;;;;;;5108061;28;20267;-74
2022/10/08 14:26:35;;;;;;;;;;;14.20;98.80;;;;;;5098487;27;19923;-73
2022/10/08 14:29:02;;;;;;;;;;;14.10;98.70;;;;;;5134093;27;19999;-72
2022/10/08 14:31:29;;;;;;;;;;;14.10;98.70;;;;;;5115566;27;19908;-73
2022/10/08 14:33:55;;;;;;;;;;;14.10;98.70;;;;;;5122566;27;20266;-73
2022/10/08 14:36:23;;;;;;;;;;;14.00;98.60;;;;;;5113538;27;19922;-73
2022/10/08 14:38:50;;;;;;;;;;;14.00;98.60;;;;;;5115428;27;19998;-72
2022/10/08 14:41:16;;;;;;;;;;;14.00;98.70;;;;;;5133744;27;19946;-73
2022/10/08 14:43:43;;;;;;;;;;;13.80;98.40;;;;;;5125344;27;19912;-73
2022/10/08 14:46:10;;;;;;;;;;;13.80;98.60;;;;;;5122828;27;19912;-73
2022/10/08 14:48:38;;;;;;;;;;;13.80;98.50;;;;;;5133284;27;20412;-73
2022/10/08 14:51:05;;;;;;;;;;;13.70;98.50;;;;;;5126359;27;19918;-73
2022/10/08 14:53:31;;;;;;;;;;;13.70;98.50;;;;;;5127053;27;19915;-73
2022/10/08 14:55:58;;;;;;;;;;;13.70;98.50;;;;;;5123328;27;19919;-72
2022/10/08 14:58:25;;;;;;;;;;;13.70;98.60;;;;;;5126752;27;19911;-72
2022/10/08 15:00:52;;;;;;;;;;;13.60;98.40;;;;;;5126345;27;19911;-73
2022/10/08 15:03:19;;;;;;;;;;;13.70;98.60;;;;;;5109838;28;19908;-72
2022/10/08 15:05:46;;;;;;;;;;;13.60;98.40;;;;;;5115112;27;19908;-73
2022/10/08 15:08:12;;;;;;;;;;;13.60;98.60;;;;;;5106318;28;19965;-73
2022/10/08 15:10:40;;;;;;;;;;;13.60;98.60;;;;;;5117678;27;20385;-72
2022/10/08 15:13:06;;;;;;;;;;;13.60;98.60;;;;;;5126748;27;20429;-72
2022/10/08 15:15:33;;;;;;;;;;;13.50;98.50;;;;;;5104299;28;19924;-73
2022/10/08 15:17:59;;;;;;;;;;;13.50;98.50;;;;;;5112179;28;19965;-72
2022/10/08 15:20:26;;;;;;;;;;;13.50;98.50;;;;;;5133123;28;19911;-72
2022/10/08 15:22:53;;;;;;;;;;;13.40;98.40;;;;;;5123997;28;19919;-72
2022/10/08 15:25:19;;;;;;;;;;;13.30;98.40;;;;;;5109754;28;19936;-72
2022/10/08 15:27:46;;;;;;;;;;;13.30;98.40;;;;;;5132712;28;19907;-73
2022/10/08 15:30:13;;;;;;;;;;;13.20;98.30;;;;;;5123050;27;19961;-72
2022/10/08 15:32:39;;;;;;;;;;;13.10;98.20;;;;;;5137131;27;20354;-72
2022/10/08 15:35:06;;;;;;;;;;;13.20;98.20;;;;;;5125334;27;19919;-72
2022/10/08 15:37:33;;;;;;;;;;;13.10;98.20;;;;;;5118870;27;19911;-72
2022/10/08 15:39:59;;;;;;;;;;;13.10;98.20;;;;;;5137022;27;19909;-72
2022/10/08 15:42:26;;;;;;;;;;;13.00;98.20;;;;;;5137044;27;19961;-73
2022/10/08 15:44:54;;;;;;;;;;;13.00;98.20;;;;;;5115392;27;19993;-72
2022/10/08 15:47:20;;;;;;;;;;;12.90;98.00;;;;;;5123481;27;19916;-73
2022/10/08 15:49:47;;;;;;;;;;;12.80;98.00;;;;;;5109663;27;19908;-73
2022/10/08 15:52:14;;;;;;;;;;;12.80;98.00;;;;;;5118847;27;19912;-71
2022/10/08 15:54:41;;;;;;;;;;;12.90;98.00;;;;;;5107789;28;20291;-73
2022/10/08 15:57:08;;;;;;;;;;;12.80;97.90;;;;;;5095623;27;19941;-73
2022/10/08 15:59:35;;;;;;;;;;;12.80;97.90;;;;;;5125877;27;20293;-73
2022/10/08 16:02:02;;;;;;;;;;;12.60;97.80;;;;;;5110451;27;19961;-73
2022/10/08 16:04:28;;;;;;;;;;;12.70;97.90;;;;;;5104279;28;19923;-73
2022/10/08 16:06:55;;;;;;;;;;;12.70;97.90;;;;;;5132758;27;20473;-73
2022/10/08 16:09:22;;;;;;;;;;;12.70;97.90;;;;;;5136324;27;19907;-72
2022/10/08 16:11:49;;;;;;;;;;;12.70;97.90;;;;;;5121869;27;19969;-72
2022/10/08 16:14:16;;;;;;;;;;;12.70;98.00;;;;;;5103807;27;20014;-73
2022/10/08 16:16:43;;;;;;;;;;;12.70;97.90;;;;;;5110931;27;19908;-72
2022/10/08 16:19:15;;;;;;;;;;;12.70;97.90;;;;;;5136340;27;19950;-73
2022/10/08 16:21:41;;;;;;;;;;;12.70;98.00;;;;;;5114451;27;20409;-72
2022/10/08 16:24:08;;;;;;;;;;;12.70;97.90;;;;;;5121182;27;20017;-72
2022/10/08 16:26:35;;;;;;;;;;;12.70;97.90;;;;;;5105828;28;19912;-72
2022/10/08 16:29:03;;;;;;;;;;;12.50;97.70;;;;;;5107552;28;19943;-73
2022/10/08 16:31:30;;;;;;;;;;;12.40;97.70;;;;;;5113205;28;19918;-72
2022/10/08 16:33:57;;;;;;;;;;;12.50;97.80;;;;;;5082833;28;19915;-73
2022/10/08 16:36:24;;;;;;;;;;;12.40;97.70;;;;;;5114900;28;19918;-72
2022/10/08 16:38:51;;;;;;;;;;;12.50;97.90;;;;;;5114814;28;20429;-72
2022/10/08 16:41:19;;;;;;;;;;;12.50;97.90;;;;;;5102727;28;20325;-72
2022/10/08 16:43:48;;;;;;;;;;;12.50;97.90;;;;;;5090868;28;19931;-72
2022/10/08 16:46:15;;;;;;;;;;;12.50;98.00;;;;;;5112852;28;20416;-72
2022/10/08 16:48:42;;;;;;;;;;;12.50;97.90;;;;;;5114414;28;20045;-72
2022/10/08 16:51:09;;;;;;;;;;;12.40;97.90;;;;;;5110800;28;20362;-72
2022/10/08 16:53:35;;;;;;;;;;;12.30;97.80;;;;;;5113819;28;20147;-72
2022/10/08 16:56:02;;;;;;;;;;;12.40;98.00;;;;;;5114824;28;19920;-72
2022/10/08 16:58:29;;;;;;;;;;;12.40;98.10;;;;;;5112324;28;19912;-72
2022/10/08 17:00:56;;;;;;;;;;;12.40;98.00;;;;;;5085008;28;19912;-72
2022/10/08 17:03:23;;;;;;;;;;;12.30;98.00;;;;;;5109219;28;19912;-72
2022/10/08 17:05:49;;;;;;;;;;;12.30;98.00;;;;;;5104623;28;20351;-72
2022/10/08 17:08:16;;;;;;;;;;;12.30;98.10;;;;;;5114022;28;19908;-72
2022/10/08 17:10:42;;;;;;;;;;;12.40;98.10;;;;;;5106338;28;19912;-71
2022/10/08 17:13:09;;;;;;;;;;;12.40;98.20;;;;;;5108438;28;19991;-71
2022/10/08 17:15:36;;;;;;;;;;;12.30;98.10;;;;;;5114179;28;19923;-72
2022/10/08 17:18:02;;;;;;;;;;;12.30;98.10;;;;;;5114234;28;19952;-71
2022/10/08 17:20:29;;;;;;;;;;;12.30;98.20;;;;;;5111417;27;20301;-72
2022/10/08 17:22:56;;;;;;;;;;;12.30;98.10;;;;;;5114072;27;19963;-71
2022/10/08 17:25:22;;;;;;;;;;;12.20;98.10;;;;;;5113789;28;19912;-72
2022/10/08 17:27:49;;;;;;;;;;;12.20;98.20;;;;;;5114776;28;19912;-71
2022/10/08 17:30:16;;;;;;;;;;;12.30;98.20;;;;;;5105232;28;19912;-71
2022/10/08 17:32:42;;;;;;;;;;;12.20;98.20;;;;;;5113362;28;19916;-71
2022/10/08 17:35:09;;;;;;;;;;;12.20;98.20;;;;;;5102452;28;20417;-71
2022/10/08 18:11:52;;;;;;;;;;;12.00;98.00;;;;;;5096028;28;20009;-71
2022/10/08 18:14:19;;;;;;;;;;;11.90;97.90;;;;;;5092900;28;20287;-70
2022/10/08 18:16:46;;;;;;;;;;;11.90;98.00;;;;;;5073833;28;19916;-70
2022/10/08 18:19:12;;;;;;;;;;;11.90;98.00;;;;;;5093138;28;20003;-70
2022/10/08 18:21:39;;;;;;;;;;;11.90;97.90;;;;;;5079859;28;19955;-71
2022/10/08 18:24:06;;;;;;;;;;;11.90;98.00;;;;;;5092438;28;19998;-72
2022/10/08 18:26:34;;;;;;;;;;;11.90;97.90;;;;;;5088731;28;19919;-71
2022/10/08 18:29:02;;;;;;;;;;;11.80;97.80;;;;;;5079956;28;19916;-71
2022/10/08 18:31:30;;;;;;;;;;;11.80;97.80;;;;;;5090728;28;19966;-71
2022/10/08 18:33:58;;;;;;;;;;;11.80;97.90;;;;;;5091917;28;19921;-71
2022/10/08 18:36:26;;;;;;;;;;;11.70;97.80;;;;;;5073834;28;19947;-72
2022/10/08 18:38:56;;;;;;;;;;;11.70;97.70;;;;;;5087318;28;19912;-72
2022/10/08 18:41:26;;;;;;;;;;;11.70;97.60;;;;;;5090219;28;20007;-71
2022/10/08 18:43:53;;;;;;;;;;;11.70;97.70;;;;;;5072122;28;19916;-71
2022/10/08 18:46:20;;;;;;;;;;;11.70;97.80;;;;;;5092793;28;19946;-72
2022/10/08 18:48:46;;;;;;;;;;;11.70;97.70;;;;;;5092599;28;19953;-72
2022/10/08 18:51:15;;;;;;;;;;;11.60;97.50;;;;;;5088755;28;19912;-72
2022/10/08 18:53:42;;;;;;;;;;;11.60;97.60;;;;;;5091801;28;20463;-72
2022/10/08 18:56:10;;;;;;;;;;;11.50;97.50;;;;;;5091364;28;19955;-72
2022/10/08 18:58:37;;;;;;;;;;;11.50;97.60;;;;;;5092318;28;20378;-71
2022/10/08 19:01:04;;;;;;;;;;;11.50;97.60;;;;;;5091758;28;19920;-72
2022/10/08 19:03:31;;;;;;;;;;;11.60;97.70;;;;;;5089798;28;20338;-73
2022/10/08 19:05:57;;;;;;;;;;;11.50;97.40;;;;;;5090866;28;19908;-73
2022/10/08 19:08:24;;;;;;;;;;;11.40;97.30;;;;;;5077087;28;19978;-73
2022/10/08 19:10:51;;;;;;;;;;;11.30;97.20;;;;;;5091526;28;19912;-73
2022/10/08 19:13:18;;;;;;;;;;;11.40;97.50;;;;;;5090732;28;19924;-73
2022/10/08 19:15:45;;;;;;;;;;;11.40;97.30;;;;;;5084120;28;19924;-73
2022/10/08 19:18:12;;;;;;;;;;;11.40;97.50;;;;;;5089960;28;20309;-72
2022/10/08 19:20:38;;;;;;;;;;;11.50;97.50;;;;;;5084426;28;19919;-73
2022/10/08 19:23:05;;;;;;;;;;;11.40;97.40;;;;;;5085147;28;19916;-72
2022/10/08 19:25:33;;;;;;;;;;;11.30;97.20;;;;;;5086808;28;20409;-73
2022/10/08 19:27:59;;;;;;;;;;;11.30;97.30;;;;;;5070027;28;19959;-74
2022/10/08 19:30:26;;;;;;;;;;;11.20;97.20;;;;;;5089729;28;20179;-74
2022/10/08 19:32:53;;;;;;;;;;;11.30;97.40;;;;;;5082549;28;20008;-74
2022/10/08 19:35:19;;;;;;;;;;;11.40;97.60;;;;;;5081931;28;20059;-73
2022/10/08 19:37:46;;;;;;;;;;;11.30;97.40;;;;;;5089693;28;20389;-73
2022/10/08 19:40:13;;;;;;;;;;;11.30;97.20;;;;;;5088478;28;19924;-74
2022/10/08 19:42:39;;;;;;;;;;;11.20;97.20;;;;;;5084194;28;19939;-74
2022/10/08 19:45:06;;;;;;;;;;;11.20;97.20;;;;;;5077934;28;19908;-73
2022/10/08 19:47:34;;;;;;;;;;;11.20;97.20;;;;;;5080138;28;19920;-73
2022/10/08 19:50:01;;;;;;;;;;;11.20;97.50;;;;;;5115113;22;19934;-73
2022/10/08 19:52:28;;;;;;;;;;;11.30;97.50;;;;;;5105681;28;20003;-73
2022/10/08 19:54:55;;;;;;;;;;;11.30;97.50;;;;;;5106312;28;19923;-73
2022/10/08 19:57:21;;;;;;;;;;;11.20;97.40;;;;;;5107994;28;19915;-73
2022/10/08 19:59:48;;;;;;;;;;;11.20;97.40;;;;;;5108897;28;19927;-74
2022/10/08 20:02:15;;;;;;;;;;;11.20;97.30;;;;;;5108977;28;19933;-73
2022/10/08 20:04:43;;;;;;;;;;;11.10;97.20;;;;;;5102165;28;19908;-73
2022/10/08 20:07:10;;;;;;;;;;;11.00;97.00;;;;;;5105958;28;20480;-73
2022/10/08 20:09:37;;;;;;;;;;;11.10;97.20;;;;;;5103307;28;19968;-74
2022/10/08 20:12:03;;;;;;;;;;;11.10;97.30;;;;;;5104277;28;19919;-74
2022/10/08 20:14:30;;;;;;;;;;;11.10;97.10;;;;;;5101294;28;19920;-72
2022/10/08 20:16:57;;;;;;;;;;;11.00;96.90;;;;;;5102350;28;19922;-73
2022/10/08 20:19:24;;;;;;;;;;;11.00;97.10;;;;;;5104241;28;20019;-72
2022/10/08 20:21:50;;;;;;;;;;;11.00;97.00;;;;;;5088085;28;20362;-73
2022/10/08 20:24:17;;;;;;;;;;;10.90;96.90;;;;;;5107910;28;20332;-72
2022/10/08 20:26:44;;;;;;;;;;;11.00;97.10;;;;;;5108045;28;20388;-71
2022/10/08 20:29:12;;;;;;;;;;;11.00;97.00;;;;;;5108748;28;19935;-72
2022/10/08 20:31:48;;;;;;;;;;;10.90;97.00;;;;;;5091035;28;19961;-72
2022/10/08 20:34:18;;;;;;;;;;;10.90;97.00;;;;;;5108969;28;20016;-72
2022/10/08 20:36:45;;;;;;;;;;;11.00;97.00;;;;;;5107119;28;19916;-73
2022/10/08 20:39:12;;;;;;;;;;;10.90;96.90;;;;;;5107752;27;19916;-72
2022/10/08 20:41:39;;;;;;;;;;;10.80;96.70;;;;;;5108693;28;20347;-73
2022/10/08 20:44:06;;;;;;;;;;;10.90;96.60;;;;;;5106962;28;19969;-73
2022/10/08 20:46:33;;;;;;;;;;;10.90;96.60;;;;;;5086927;28;19919;-73
